Time;durP1;ratioP1;P1;durP2;ratioP2;P2;SDS_P1;SDS_P2;PMS_P1;PMS_P2;Temp;Humidity;BMP_temperature;BMP_pressure;BME280_temperature;BME280_humidity;BME280_pressure;Samples;Min_cycle;Max_cycle;Signal;HPM_P1;HPM_P2
2021/05/13 00:00:50;;;;;;;8.73;6.80;;;;;;;;;;4919345;28;20246;-81
2021/05/13 00:03:18;;;;;;;8.13;6.07;;;;;;;;;;4937120;28;20246;-81
2021/05/13 00:05:46;;;;;;;7.10;6.20;;;;;;;;;;4927430;28;20648;-79
2021/05/13 00:08:15;;;;;;;6.63;5.90;;;;;;;;;;4931303;28;20620;-80
2021/05/13 00:10:43;;;;;;;7.57;6.53;;;;;;;;;;4926464;28;20235;-79
2021/05/13 00:13:11;;;;;;;7.40;6.47;;;;;;;;;;4931656;28;20235;-79
2021/05/13 00:15:42;;;;;;;8.33;6.97;;;;;;;;;;4914495;28;20269;-79
2021/05/13 00:18:10;;;;;;;7.83;6.47;;;;;;;;;;4934613;28;20246;-82
2021/05/13 00:20:44;;;;;;;11.93;8.13;;;;;;;;;;4931098;28;20238;-79
2021/05/13 00:23:12;;;;;;;9.97;8.00;;;;;;;;;;4931631;28;20231;-80
2021/05/13 00:25:42;;;;;;;11.10;7.77;;;;;;;;;;4922305;28;20244;-81
2021/05/13 00:28:10;;;;;;;7.93;7.10;;;;;;;;;;4935131;28;20243;-79
2021/05/13 00:30:38;;;;;;;10.30;7.60;;;;;;;;;;4916600;29;20231;-79
2021/05/13 00:33:06;;;;;;;14.90;11.07;;;;;;;;;;4933194;28;20227;-79
2021/05/13 00:35:34;;;;;;;8.80;7.83;;;;;;;;;;4925849;28;20241;-81
2021/05/13 00:38:03;;;;;;;13.17;9.57;;;;;;;;;;4927877;28;20250;-81
2021/05/13 00:40:33;;;;;;;9.63;8.53;;;;;;;;;;4938222;28;20231;-83
2021/05/13 00:43:02;;;;;;;9.07;7.87;;;;;;;;;;4926771;28;20235;-82
2021/05/13 00:45:30;;;;;;;10.97;8.20;;;;;;;;;;4936699;28;20875;-86
2021/05/13 00:48:05;;;;;;;10.50;8.17;;;;;;;;;;4936545;28;20236;-84
2021/05/13 00:50:35;;;;;;;10.23;8.53;;;;;;;;;;4936891;28;20234;-82
2021/05/13 00:53:06;;;;;;;11.40;9.40;;;;;;;;;;4932076;28;20232;-80
2021/05/13 00:55:34;;;;;;;10.20;8.07;;;;;;;;;;4928348;28;20255;-81
2021/05/13 00:58:03;;;;;;;11.43;8.23;;;;;;;;;;4928745;28;20579;-80
2021/05/13 01:00:42;;;;;;;11.37;7.60;;;;;;;;;;4928701;28;20246;-85
2021/05/13 01:03:10;;;;;;;8.70;7.80;;;;;;;;;;4913456;28;20235;-81
2021/05/13 01:05:38;;;;;;;7.90;7.07;;;;;;;;;;4913608;28;20235;-82
2021/05/13 01:08:07;;;;;;;7.33;6.63;;;;;;;;;;4931565;28;20222;-82
2021/05/13 01:10:35;;;;;;;7.70;6.90;;;;;;;;;;4911977;29;20231;-81
2021/05/13 01:13:07;;;;;;;10.07;7.30;;;;;;;;;;4931671;28;20227;-80
2021/05/13 01:15:40;;;;;;;10.77;7.93;;;;;;;;;;4931826;28;20231;-80
2021/05/13 01:18:14;;;;;;;7.97;7.17;;;;;;;;;;4931369;28;20247;-82
2021/05/13 01:20:42;;;;;;;8.73;7.63;;;;;;;;;;4931135;28;20227;-83
2021/05/13 01:23:13;;;;;;;9.87;7.73;;;;;;;;;;4921363;28;20236;-83
2021/05/13 01:25:43;;;;;;;10.23;7.57;;;;;;;;;;4921235;28;20223;-80
2021/05/13 01:28:12;;;;;;;10.97;7.97;;;;;;;;;;4905634;28;20238;-83
2021/05/13 01:30:42;;;;;;;10.57;8.20;;;;;;;;;;4927223;28;20851;-82
2021/05/13 01:33:11;;;;;;;9.70;8.20;;;;;;;;;;4937747;28;20235;-77
2021/05/13 01:35:40;;;;;;;11.37;8.17;;;;;;;;;;4930736;28;20235;-78
2021/05/13 01:38:10;;;;;;;7.57;6.87;;;;;;;;;;4928623;28;20232;-79
2021/05/13 01:40:40;;;;;;;10.13;7.60;;;;;;;;;;4920666;28;20223;-82
2021/05/13 01:43:08;;;;;;;8.43;7.40;;;;;;;;;;4922256;28;20246;-80
2021/05/13 01:45:36;;;;;;;9.33;7.67;;;;;;;;;;4915142;29;20232;-80
2021/05/13 01:48:06;;;;;;;9.50;8.20;;;;;;;;;;4915776;28;20227;-82
2021/05/13 01:50:38;;;;;;;9.73;8.07;;;;;;;;;;4921891;28;20219;-81
2021/05/13 01:53:07;;;;;;;9.57;8.17;;;;;;;;;;4929777;28;20226;-83
2021/05/13 01:55:36;;;;;;;10.17;8.60;;;;;;;;;;4910450;28;20249;-83
2021/05/13 01:58:05;;;;;;;9.00;8.10;;;;;;;;;;4920253;28;20235;-84
2021/05/13 02:00:34;;;;;;;9.10;7.70;;;;;;;;;;4931546;28;20239;-81
2021/05/13 02:03:03;;;;;;;9.07;7.67;;;;;;;;;;4915837;28;20250;-78
2021/05/13 02:05:32;;;;;;;9.17;7.00;;;;;;;;;;4937962;28;20245;-79
2021/05/13 02:08:00;;;;;;;8.33;6.93;;;;;;;;;;4939041;28;20231;-80
2021/05/13 02:10:28;;;;;;;10.27;8.27;;;;;;;;;;4922763;28;20709;-79
2021/05/13 02:12:57;;;;;;;9.07;8.17;;;;;;;;;;4913296;28;20239;-79
2021/05/13 02:15:26;;;;;;;9.90;8.50;;;;;;;;;;4930282;28;20581;-79
2021/05/13 02:17:54;;;;;;;11.23;9.87;;;;;;;;;;4944226;28;20242;-79
2021/05/13 02:20:23;;;;;;;11.13;10.03;;;;;;;;;;4932297;28;20240;-79
2021/05/13 02:22:54;;;;;;;12.30;9.30;;;;;;;;;;4938973;28;20242;-79
2021/05/13 02:25:22;;;;;;;10.73;9.37;;;;;;;;;;4936242;28;20242;-79
2021/05/13 02:27:50;;;;;;;11.50;9.60;;;;;;;;;;4913623;28;20235;-79
2021/05/13 02:30:19;;;;;;;9.53;8.43;;;;;;;;;;4917477;29;20220;-79
2021/05/13 02:32:48;;;;;;;11.23;9.27;;;;;;;;;;4912301;28;20231;-80
2021/05/13 02:35:19;;;;;;;12.73;9.10;;;;;;;;;;4944907;28;20688;-80
2021/05/13 02:37:47;;;;;;;11.10;8.63;;;;;;;;;;4937663;28;20231;-79
2021/05/13 02:40:16;;;;;;;10.60;7.97;;;;;;;;;;4930991;28;20718;-79
2021/05/13 02:43:00;;;;;;;8.63;7.83;;;;;;;;;;4944060;28;20224;-84
2021/05/13 02:45:28;;;;;;;9.83;8.97;;;;;;;;;;4951337;28;20223;-80
2021/05/13 02:47:58;;;;;;;10.97;8.77;;;;;;;;;;4915580;28;20246;-83
2021/05/13 02:50:27;;;;;;;10.80;9.70;;;;;;;;;;4917413;28;20249;-79
2021/05/13 02:52:55;;;;;;;9.73;8.80;;;;;;;;;;4934825;28;20224;-81
2021/05/13 02:55:23;;;;;;;10.50;9.03;;;;;;;;;;4922439;28;20232;-79
2021/05/13 02:57:51;;;;;;;12.10;10.43;;;;;;;;;;4916783;28;20228;-79
2021/05/13 03:00:29;;;;;;;13.37;10.60;;;;;;;;;;4922299;28;20891;-78
2021/05/13 03:02:58;;;;;;;14.27;10.10;;;;;;;;;;4927951;28;20248;-82
2021/05/13 03:05:27;;;;;;;11.70;10.20;;;;;;;;;;4927430;28;20527;-79
2021/05/13 03:07:58;;;;;;;11.60;9.77;;;;;;;;;;4926148;28;20238;-79
2021/05/13 03:10:34;;;;;;;12.13;9.83;;;;;;;;;;4948448;28;20232;-84
2021/05/13 03:13:03;;;;;;;15.10;10.93;;;;;;;;;;4951172;28;20217;-85
2021/05/13 03:15:31;;;;;;;10.63;9.53;;;;;;;;;;4946743;28;20244;-82
2021/05/13 03:18:00;;;;;;;10.50;9.37;;;;;;;;;;4929611;28;20219;-80
2021/05/13 03:20:34;;;;;;;10.70;8.97;;;;;;;;;;4932515;28;20320;-79
2021/05/13 03:23:03;;;;;;;10.30;8.17;;;;;;;;;;4929782;28;20235;-79
2021/05/13 03:25:33;;;;;;;10.63;9.53;;;;;;;;;;4927620;28;20227;-78
2021/05/13 03:28:08;;;;;;;9.57;7.87;;;;;;;;;;4929173;28;20774;-84
2021/05/13 03:30:38;;;;;;;10.77;9.13;;;;;;;;;;4920992;28;20226;-79
2021/05/13 03:33:07;;;;;;;9.27;8.30;;;;;;;;;;4923874;28;20231;-79
2021/05/13 03:35:36;;;;;;;9.80;8.77;;;;;;;;;;4920976;28;20220;-79
2021/05/13 03:38:06;;;;;;;9.40;7.93;;;;;;;;;;4918321;28;20232;-82
2021/05/13 03:40:34;;;;;;;8.90;7.43;;;;;;;;;;4930690;29;20238;-79
2021/05/13 03:43:03;;;;;;;9.73;7.87;;;;;;;;;;4928574;28;20231;-79
2021/05/13 03:45:32;;;;;;;8.97;7.73;;;;;;;;;;4917803;29;20231;-79
2021/05/13 03:48:02;;;;;;;8.97;7.87;;;;;;;;;;4922018;28;20235;-80
2021/05/13 03:50:33;;;;;;;9.40;7.87;;;;;;;;;;4931850;28;20244;-79
2021/05/13 03:53:02;;;;;;;13.03;8.50;;;;;;;;;;4907957;28;20406;-78
2021/05/13 03:55:30;;;;;;;9.53;8.40;;;;;;;;;;4912336;29;20231;-78
2021/05/13 03:57:59;;;;;;;14.00;8.60;;;;;;;;;;4908649;28;20232;-79
2021/05/13 04:00:30;;;;;;;9.70;8.23;;;;;;;;;;4907406;29;20262;-79
2021/05/13 04:02:58;;;;;;;10.50;8.60;;;;;;;;;;4929865;28;20232;-81
2021/05/13 04:05:26;;;;;;;9.73;8.77;;;;;;;;;;4939385;28;20713;-81
2021/05/13 04:07:55;;;;;;;11.80;8.73;;;;;;;;;;4927901;28;20244;-82
2021/05/13 04:10:23;;;;;;;9.43;8.23;;;;;;;;;;4926819;29;20610;-80
2021/05/13 04:12:55;;;;;;;9.33;8.00;;;;;;;;;;4932867;28;20242;-82
2021/05/13 04:15:23;;;;;;;9.90;8.93;;;;;;;;;;4923618;28;20244;-79
2021/05/13 04:17:52;;;;;;;9.43;8.53;;;;;;;;;;4929113;28;20219;-81
2021/05/13 04:20:20;;;;;;;9.30;8.40;;;;;;;;;;4936498;28;20242;-83
2021/05/13 04:22:49;;;;;;;11.27;8.67;;;;;;;;;;4930276;28;20251;-81
2021/05/13 04:25:18;;;;;;;9.70;8.63;;;;;;;;;;4925387;29;20243;-83
2021/05/13 04:27:47;;;;;;;10.23;8.93;;;;;;;;;;4927401;28;20239;-80
2021/05/13 04:30:16;;;;;;;10.50;8.77;;;;;;;;;;4928326;28;20309;-80
2021/05/13 04:32:44;;;;;;;12.50;8.70;;;;;;;;;;4923263;28;20227;-81
2021/05/13 04:35:12;;;;;;;11.00;8.13;;;;;;;;;;4928467;28;20238;-79
2021/05/13 04:37:40;;;;;;;8.57;7.70;;;;;;;;;;4905118;28;20231;-80
2021/05/13 04:40:10;;;;;;;11.50;8.43;;;;;;;;;;4927175;28;20250;-83
2021/05/13 04:42:39;;;;;;;9.00;8.10;;;;;;;;;;4925194;28;20224;-80
2021/05/13 04:45:08;;;;;;;8.87;7.97;;;;;;;;;;4928830;28;20238;-82
2021/05/13 04:47:51;;;;;;;9.80;7.43;;;;;;;;;;4928433;28;20251;-81
2021/05/13 04:50:20;;;;;;;10.27;8.17;;;;;;;;;;4910467;28;20232;-82
2021/05/13 04:52:48;;;;;;;10.93;8.73;;;;;;;;;;4918657;28;20249;-79
2021/05/13 04:55:17;;;;;;;10.40;9.30;;;;;;;;;;4931637;28;20227;-79
2021/05/13 04:57:47;;;;;;;11.83;8.57;;;;;;;;;;4926834;28;20223;-80
2021/05/13 05:00:15;;;;;;;9.77;8.40;;;;;;;;;;4923950;28;20262;-79
2021/05/13 05:02:43;;;;;;;10.90;8.13;;;;;;;;;;4921798;28;20227;-87
2021/05/13 05:05:12;;;;;;;9.50;8.07;;;;;;;;;;4903190;28;20313;-83
2021/05/13 05:07:40;;;;;;;9.43;8.00;;;;;;;;;;4918059;28;20219;-82
2021/05/13 05:10:09;;;;;;;9.13;8.20;;;;;;;;;;4918205;28;20246;-80
2021/05/13 05:12:37;;;;;;;10.93;7.57;;;;;;;;;;4924902;28;20231;-79
2021/05/13 05:15:07;;;;;;;12.20;8.13;;;;;;;;;;4901553;28;20235;-80
2021/05/13 05:17:35;;;;;;;8.77;7.97;;;;;;;;;;4915157;28;20239;-80
2021/05/13 05:20:03;;;;;;;8.13;7.03;;;;;;;;;;4919087;28;20239;-79
2021/05/13 05:22:32;;;;;;;8.03;7.17;;;;;;;;;;4894779;28;20732;-79
2021/05/13 05:25:00;;;;;;;11.57;7.63;;;;;;;;;;4902703;28;20720;-81
2021/05/13 05:27:28;;;;;;;9.20;8.17;;;;;;;;;;4915286;28;20243;-83
2021/05/13 05:29:56;;;;;;;9.13;8.23;;;;;;;;;;4927054;28;20232;-85
2021/05/13 05:32:25;;;;;;;9.40;7.83;;;;;;;;;;4924319;28;20235;-81
2021/05/13 05:34:53;;;;;;;9.70;7.23;;;;;;;;;;4906165;28;20231;-79
2021/05/13 05:37:21;;;;;;;8.37;6.40;;;;;;;;;;4951617;28;20284;-83
2021/05/13 05:39:49;;;;;;;10.90;6.50;;;;;;;;;;4949613;28;20211;-80
2021/05/13 05:42:17;;;;;;;9.87;5.80;;;;;;;;;;4899680;29;20227;-84
2021/05/13 05:44:45;;;;;;;9.33;6.70;;;;;;;;;;4907704;29;20609;-79
2021/05/13 05:47:16;;;;;;;9.83;6.23;;;;;;;;;;4924676;28;21099;-79
2021/05/13 05:49:45;;;;;;;10.00;6.50;;;;;;;;;;4927493;28;20701;-79
2021/05/13 05:52:13;;;;;;;7.37;6.40;;;;;;;;;;4927057;28;20239;-80
2021/05/13 05:54:41;;;;;;;7.17;6.33;;;;;;;;;;4927908;28;20235;-80
2021/05/13 05:57:09;;;;;;;6.70;5.90;;;;;;;;;;4908719;28;20239;-80
2021/05/13 06:05:51;;;;;;;9.73;6.50;;;;;;;;;;4922700;29;21207;-81
2021/05/13 06:08:19;;;;;;;8.67;6.23;;;;;;;;;;4915886;29;20218;-85
2021/05/13 06:10:47;;;;;;;7.83;5.73;;;;;;;;;;4920814;29;20236;-82
2021/05/13 06:13:15;;;;;;;8.43;6.53;;;;;;;;;;4903176;29;20240;-81
2021/05/13 06:15:43;;;;;;;10.63;6.57;;;;;;;;;;4897610;28;20523;-82
2021/05/13 06:18:11;;;;;;;8.10;6.93;;;;;;;;;;4888839;29;20247;-83
2021/05/13 06:20:39;;;;;;;8.60;7.10;;;;;;;;;;4890762;29;20228;-79
2021/05/13 06:23:09;;;;;;;7.10;6.30;;;;;;;;;;4888559;28;20777;-83
2021/05/13 06:25:37;;;;;;;9.60;7.07;;;;;;;;;;4902880;29;20750;-79
2021/05/13 06:28:07;;;;;;;11.20;7.10;;;;;;;;;;4900364;28;20263;-78
2021/05/13 06:30:35;;;;;;;8.53;6.67;;;;;;;;;;4905583;28;20239;-79
2021/05/13 06:33:03;;;;;;;8.93;6.70;;;;;;;;;;4888049;29;20611;-79
2021/05/13 06:35:35;;;;;;;9.57;6.90;;;;;;;;;;4908720;28;20607;-79
2021/05/13 06:38:02;;;;;;;10.47;7.43;;;;;;;;;;4887754;29;20232;-79
2021/05/13 06:40:31;;;;;;;7.70;6.30;;;;;;;;;;4895844;29;20237;-79
2021/05/13 06:43:00;;;;;;;10.73;7.13;;;;;;;;;;4884958;28;20228;-80
2021/05/13 06:45:28;;;;;;;8.90;6.97;;;;;;;;;;4904802;29;20213;-84
2021/05/13 06:47:56;;;;;;;8.73;6.60;;;;;;;;;;4934063;29;20235;-82
2021/05/13 06:50:24;;;;;;;9.10;6.73;;;;;;;;;;4912909;29;20228;-80
2021/05/13 06:52:52;;;;;;;8.53;7.27;;;;;;;;;;4911947;28;20232;-82
2021/05/13 06:55:20;;;;;;;8.47;7.10;;;;;;;;;;4909911;29;20217;-83
2021/05/13 06:57:49;;;;;;;7.83;6.60;;;;;;;;;;4910931;29;20220;-80
2021/05/13 07:00:19;;;;;;;9.53;6.50;;;;;;;;;;4912542;29;20239;-80
2021/05/13 07:02:55;;;;;;;8.87;6.93;;;;;;;;;;4909219;29;20236;-79
2021/05/13 07:05:23;;;;;;;10.67;7.60;;;;;;;;;;4912412;29;20235;-80
2021/05/13 07:07:51;;;;;;;8.13;6.80;;;;;;;;;;4911946;28;20232;-80
2021/05/13 07:10:19;;;;;;;8.00;7.20;;;;;;;;;;4912125;29;20640;-80
2021/05/13 07:12:47;;;;;;;7.90;7.00;;;;;;;;;;4911628;28;20695;-79
2021/05/13 07:15:32;;;;;;;7.40;6.70;;;;;;;;;;4909123;28;20310;-79
2021/05/13 07:18:00;;;;;;;8.67;6.93;;;;;;;;;;4910519;29;20231;-79
2021/05/13 07:20:30;;;;;;;8.27;6.60;;;;;;;;;;4894292;29;20984;-79
2021/05/13 07:22:58;;;;;;;7.43;6.73;;;;;;;;;;4912738;28;20255;-80
2021/05/13 07:25:26;;;;;;;8.00;7.13;;;;;;;;;;4915972;29;20231;-80
2021/05/13 07:27:54;;;;;;;10.90;6.93;;;;;;;;;;4915556;28;20236;-80
2021/05/13 07:30:24;;;;;;;7.90;7.10;;;;;;;;;;4898425;29;20619;-80
2021/05/13 07:32:53;;;;;;;9.27;7.47;;;;;;;;;;4898782;29;20698;-80
2021/05/13 07:35:21;;;;;;;6.20;5.60;;;;;;;;;;4898831;29;20220;-81
2021/05/13 07:37:50;;;;;;;7.27;6.40;;;;;;;;;;4900908;29;20224;-80
2021/05/13 07:40:20;;;;;;;6.97;6.30;;;;;;;;;;4895321;29;20232;-79
2021/05/13 07:42:48;;;;;;;7.67;6.47;;;;;;;;;;4894366;29;20220;-79
2021/05/13 07:45:17;;;;;;;6.63;5.93;;;;;;;;;;4911148;29;20238;-80
2021/05/13 07:47:46;;;;;;;7.17;6.30;;;;;;;;;;4914680;29;20255;-80
2021/05/13 07:50:17;;;;;;;7.00;5.53;;;;;;;;;;4908534;28;20232;-81
2021/05/13 07:52:45;;;;;;;7.30;5.60;;;;;;;;;;4896176;29;20235;-77
2021/05/13 07:55:14;;;;;;;7.30;5.40;;;;;;;;;;4909445;29;20232;-78
2021/05/13 07:57:43;;;;;;;5.83;5.10;;;;;;;;;;4924035;28;20225;-80
2021/05/13 08:00:13;;;;;;;8.73;5.60;;;;;;;;;;4909362;28;21107;-78
2021/05/13 08:02:41;;;;;;;5.47;4.90;;;;;;;;;;4911573;28;20236;-78
2021/05/13 08:05:10;;;;;;;5.90;5.30;;;;;;;;;;4910155;28;20247;-79
2021/05/13 08:07:39;;;;;;;10.03;5.93;;;;;;;;;;4910715;29;20234;-81
2021/05/13 08:10:08;;;;;;;5.43;4.93;;;;;;;;;;4922155;28;20244;-78
2021/05/13 08:12:36;;;;;;;6.17;5.10;;;;;;;;;;4910739;29;20220;-78
2021/05/13 08:15:09;;;;;;;6.67;5.07;;;;;;;;;;4907797;29;20227;-78
2021/05/13 08:17:37;;;;;;;8.30;5.23;;;;;;;;;;4914770;28;20321;-78
2021/05/13 08:20:07;;;;;;;6.00;4.63;;;;;;;;;;4906541;29;20603;-78
2021/05/13 08:22:35;;;;;;;5.90;4.70;;;;;;;;;;4925684;28;20243;-78
2021/05/13 08:25:06;;;;;;;9.70;5.00;;;;;;;;;;4892717;29;20569;-78
2021/05/13 08:27:34;;;;;;;4.67;3.93;;;;;;;;;;4905469;29;20224;-78
2021/05/13 08:30:04;;;;;;;5.33;4.37;;;;;;;;;;4910534;29;20240;-78
2021/05/13 08:32:32;;;;;;;4.77;3.80;;;;;;;;;;4892118;29;20240;-78
2021/05/13 08:35:01;;;;;;;5.40;3.50;;;;;;;;;;4906323;28;20240;-78
2021/05/13 08:37:29;;;;;;;3.87;3.47;;;;;;;;;;4908774;28;20279;-78
2021/05/13 08:39:57;;;;;;;5.83;3.63;;;;;;;;;;4891819;28;20236;-78
2021/05/13 08:42:26;;;;;;;7.83;3.33;;;;;;;;;;4908987;28;20235;-78
2021/05/13 08:44:54;;;;;;;3.73;3.30;;;;;;;;;;4905911;29;20606;-78
2021/05/13 08:47:22;;;;;;;3.53;3.03;;;;;;;;;;4894477;29;20614;-78
2021/05/13 08:49:50;;;;;;;3.77;2.80;;;;;;;;;;4909951;28;20246;-79
2021/05/13 08:52:20;;;;;;;4.53;2.80;;;;;;;;;;4903377;29;20740;-78
2021/05/13 08:54:52;;;;;;;3.77;2.70;;;;;;;;;;4894033;29;20225;-81
2021/05/13 08:57:20;;;;;;;5.60;2.73;;;;;;;;;;4919483;29;20235;-78
2021/05/13 08:59:50;;;;;;;4.17;2.20;;;;;;;;;;4894491;29;20240;-78
2021/05/13 09:02:18;;;;;;;2.63;1.80;;;;;;;;;;4909450;28;20329;-78
2021/05/13 09:04:48;;;;;;;2.50;1.60;;;;;;;;;;4906274;28;20220;-78
2021/05/13 09:07:21;;;;;;;4.10;1.93;;;;;;;;;;4906051;28;20237;-78
2021/05/13 09:09:57;;;;;;;3.20;1.67;;;;;;;;;;4909670;29;20240;-79
2021/05/13 09:12:27;;;;;;;3.77;1.63;;;;;;;;;;4893494;29;20614;-80
2021/05/13 09:15:01;;;;;;;3.33;2.03;;;;;;;;;;4901872;29;20645;-78
2021/05/13 09:17:30;;;;;;;2.00;1.47;;;;;;;;;;4897196;29;20224;-77
2021/05/13 09:20:00;;;;;;;2.50;1.70;;;;;;;;;;4916274;28;20262;-79
2021/05/13 09:22:29;;;;;;;3.60;1.60;;;;;;;;;;4906317;29;20246;-80
2021/05/13 09:24:59;;;;;;;2.03;1.37;;;;;;;;;;4916309;28;20224;-79
2021/05/13 09:27:30;;;;;;;3.23;1.33;;;;;;;;;;4908898;29;20221;-79
2021/05/13 09:30:09;;;;;;;3.30;1.47;;;;;;;;;;4916830;29;20255;-78
2021/05/13 09:32:38;;;;;;;2.93;1.57;;;;;;;;;;4883692;29;20225;-80
2021/05/13 09:35:09;;;;;;;1.83;1.30;;;;;;;;;;4916593;28;20227;-82
2021/05/13 09:37:39;;;;;;;4.73;2.23;;;;;;;;;;4923116;29;20266;-78
2021/05/13 09:40:09;;;;;;;3.17;1.70;;;;;;;;;;4930373;28;20224;-80
2021/05/13 09:42:37;;;;;;;2.63;1.80;;;;;;;;;;4929625;28;20230;-79
2021/05/13 09:45:08;;;;;;;2.63;1.50;;;;;;;;;;4918468;28;20756;-79
2021/05/13 09:47:38;;;;;;;1.83;1.50;;;;;;;;;;4913581;29;20224;-78
2021/05/13 09:50:09;;;;;;;3.77;1.40;;;;;;;;;;4905195;28;20236;-79
2021/05/13 09:52:45;;;;;;;6.23;1.60;;;;;;;;;;4916014;28;20224;-79
2021/05/13 09:55:16;;;;;;;2.93;1.60;;;;;;;;;;4913136;28;20238;-80
2021/05/13 09:57:56;;;;;;;3.17;1.50;;;;;;;;;;4914228;29;20689;-78
2021/05/13 10:00:37;;;;;;;1.60;1.20;;;;;;;;;;4917886;29;20705;-78
2021/05/13 10:03:09;;;;;;;2.00;1.17;;;;;;;;;;4891403;29;20233;-78
2021/05/13 10:05:39;;;;;;;1.70;1.40;;;;;;;;;;4911800;28;20243;-77
2021/05/13 10:08:07;;;;;;;4.33;1.30;;;;;;;;;;4910982;28;20228;-78
2021/05/13 10:10:37;;;;;;;1.73;1.20;;;;;;;;;;4913736;29;20232;-77
2021/05/13 10:13:06;;;;;;;3.03;1.00;;;;;;;;;;4897740;28;20240;-80
2021/05/13 10:15:38;;;;;;;5.63;3.77;;;;;;;;;;4921839;28;20236;-78
2021/05/13 10:18:09;;;;;;;1.13;0.80;;;;;;;;;;4905537;29;20220;-78
2021/05/13 10:20:37;;;;;;;2.50;0.90;;;;;;;;;;4912725;29;20224;-78
2021/05/13 10:23:06;;;;;;;1.60;1.40;;;;;;;;;;4901332;28;20231;-80
2021/05/13 10:25:36;;;;;;;3.20;2.30;;;;;;;;;;4901837;29;20237;-82
2021/05/13 10:28:04;;;;;;;6.70;4.33;;;;;;;;;;4927872;28;20245;-79
2021/05/13 10:30:33;;;;;;;3.67;1.77;;;;;;;;;;4914241;29;20239;-78
2021/05/13 10:33:15;;;;;;;1.30;1.00;;;;;;;;;;4910120;28;20219;-78
2021/05/13 10:36:05;;;;;;;1.27;1.17;;;;;;;;;;4913631;29;20702;-78
2021/05/13 10:38:41;;;;;;;2.20;0.90;;;;;;;;;;4895023;29;20232;-78
2021/05/13 10:41:32;;;;;;;3.27;1.13;;;;;;;;;;4913543;28;20235;-78
2021/05/13 10:44:36;;;;;;;3.50;1.70;;;;;;;;;;4907017;29;20235;-78
2021/05/13 10:47:07;;;;;;;2.80;1.17;;;;;;;;;;4910922;28;20241;-80
2021/05/13 10:49:48;;;;;;;1.47;0.90;;;;;;;;;;4908976;29;20238;-81
2021/05/13 10:52:36;;;;;;;2.77;1.30;;;;;;;;;;4897538;29;20228;-82
2021/05/13 10:55:08;;;;;;;1.03;0.93;;;;;;;;;;4902191;28;20236;-82
2021/05/13 10:57:47;;;;;;;1.00;0.90;;;;;;;;;;4903708;29;20236;-84
2021/05/13 11:00:22;;;;;;;3.80;1.80;;;;;;;;;;4902688;29;20242;-82
2021/05/13 11:02:51;;;;;;;2.53;1.20;;;;;;;;;;4905987;29;20227;-87
2021/05/13 11:05:44;;;;;;;1.60;0.73;;;;;;;;;;4910731;29;20228;-85
2021/05/13 11:08:26;;;;;;;2.40;1.00;;;;;;;;;;4909158;29;20237;-82
2021/05/13 11:10:59;;;;;;;2.97;0.70;;;;;;;;;;4921713;28;20240;-83
2021/05/13 11:13:45;;;;;;;1.63;0.80;;;;;;;;;;4910265;29;20252;-88
2021/05/13 11:16:40;;;;;;;1.73;1.13;;;;;;;;;;4934654;28;20236;-87
2021/05/13 11:19:20;;;;;;;1.23;1.07;;;;;;;;;;4918787;29;20237;-84
2021/05/13 11:22:04;;;;;;;1.33;1.10;;;;;;;;;;4924798;28;20235;-83
2021/05/13 11:24:42;;;;;;;1.57;0.90;;;;;;;;;;4911466;29;20228;-81
2021/05/13 11:27:11;;;;;;;2.10;0.90;;;;;;;;;;4904650;29;20223;-80
2021/05/13 11:29:48;;;;;;;0.70;0.70;;;;;;;;;;4922448;29;20706;-79
2021/05/13 11:32:16;;;;;;;1.10;1.00;;;;;;;;;;4905037;29;20245;-80
2021/05/13 11:34:45;;;;;;;1.10;0.90;;;;;;;;;;4916928;29;20580;-81
2021/05/13 11:37:34;;;;;;;0.80;0.80;;;;;;;;;;4904710;29;20228;-82
2021/05/13 11:40:18;;;;;;;1.23;0.60;;;;;;;;;;4920009;28;20243;-82
2021/05/13 11:42:46;;;;;;;0.70;0.70;;;;;;;;;;4904087;29;20232;-80
2021/05/13 11:45:19;;;;;;;2.93;0.90;;;;;;;;;;4918144;29;20224;-80
2021/05/13 11:47:47;;;;;;;4.03;2.60;;;;;;;;;;4918870;29;20221;-79
2021/05/13 11:50:27;;;;;;;0.60;0.60;;;;;;;;;;4902987;29;20258;-83
2021/05/13 11:53:10;;;;;;;0.67;0.67;;;;;;;;;;4904671;28;20235;-84
2021/05/13 11:55:40;;;;;;;1.47;0.90;;;;;;;;;;4902351;29;20235;-81
2021/05/13 11:58:08;;;;;;;0.70;0.70;;;;;;;;;;4919259;28;20229;-83
2021/05/13 12:00:37;;;;;;;1.53;0.70;;;;;;;;;;4919752;29;20243;-79
2021/05/13 12:03:14;;;;;;;0.60;0.60;;;;;;;;;;4903408;28;20240;-85
2021/05/13 12:05:50;;;;;;;0.80;0.80;;;;;;;;;;4916320;29;20228;-82
2021/05/13 12:08:20;;;;;;;0.80;0.70;;;;;;;;;;4904989;29;20252;-81
2021/05/13 12:10:50;;;;;;;0.90;0.73;;;;;;;;;;4923797;29;20231;-85
2021/05/13 12:13:18;;;;;;;1.10;0.67;;;;;;;;;;4922069;29;20236;-84
2021/05/13 12:16:01;;;;;;;0.80;0.80;;;;;;;;;;4911201;29;20232;-81
2021/05/13 12:18:30;;;;;;;0.70;0.70;;;;;;;;;;4912489;29;20239;-80
2021/05/13 12:20:58;;;;;;;1.90;0.60;;;;;;;;;;4933964;28;20224;-80
2021/05/13 12:23:27;;;;;;;0.67;0.67;;;;;;;;;;4918233;29;20238;-82
2021/05/13 12:25:55;;;;;;;0.60;0.60;;;;;;;;;;4923126;28;20231;-83
2021/05/13 12:28:31;;;;;;;0.60;0.60;;;;;;;;;;4936426;28;20230;-82
2021/05/13 12:31:06;;;;;;;0.80;0.80;;;;;;;;;;4923514;28;20602;-80
2021/05/13 12:33:40;;;;;;;1.13;0.83;;;;;;;;;;4906279;29;20232;-80
2021/05/13 12:36:11;;;;;;;1.13;1.00;;;;;;;;;;4904585;28;20240;-81
2021/05/13 12:38:43;;;;;;;1.10;1.00;;;;;;;;;;4901365;29;20239;-81
2021/05/13 12:41:12;;;;;;;0.83;0.73;;;;;;;;;;4917689;28;20232;-83
2021/05/13 12:43:40;;;;;;;0.93;0.93;;;;;;;;;;4922873;28;20224;-84
2021/05/13 12:46:22;;;;;;;0.93;0.87;;;;;;;;;;4919959;28;20254;-80
2021/05/13 12:48:52;;;;;;;1.30;0.80;;;;;;;;;;4919974;28;20228;-85
2021/05/13 12:51:22;;;;;;;1.07;0.97;;;;;;;;;;4905758;29;20250;-84
2021/05/13 12:53:53;;;;;;;0.80;0.80;;;;;;;;;;4925523;29;20237;-86
2021/05/13 12:56:27;;;;;;;1.17;0.87;;;;;;;;;;4934019;29;20212;-87
2021/05/13 12:59:04;;;;;;;1.53;0.87;;;;;;;;;;4929336;28;20231;-83
2021/05/13 13:01:32;;;;;;;0.80;0.80;;;;;;;;;;4936741;28;20212;-84
2021/05/13 13:04:02;;;;;;;1.10;1.00;;;;;;;;;;4922547;28;20228;-80
2021/05/13 13:06:30;;;;;;;1.07;0.97;;;;;;;;;;4931128;28;20232;-81
2021/05/13 13:08:59;;;;;;;0.90;0.90;;;;;;;;;;4914329;28;20591;-84
2021/05/13 13:11:35;;;;;;;0.97;0.87;;;;;;;;;;4896953;29;20233;-77
2021/05/13 13:14:06;;;;;;;1.27;1.17;;;;;;;;;;4905000;28;20713;-80
2021/05/13 13:16:36;;;;;;;1.90;1.07;;;;;;;;;;4894123;29;20235;-78
2021/05/13 13:19:06;;;;;;;1.00;0.90;;;;;;;;;;4910298;28;20236;-78
2021/05/13 13:21:36;;;;;;;2.03;1.20;;;;;;;;;;4907925;28;20240;-77
2021/05/13 13:24:18;;;;;;;1.40;1.00;;;;;;;;;;4909475;29;20232;-78
2021/05/13 13:26:48;;;;;;;1.07;1.00;;;;;;;;;;4907998;28;20224;-77
2021/05/13 13:29:16;;;;;;;1.40;1.30;;;;;;;;;;4907708;29;20228;-78
2021/05/13 13:31:46;;;;;;;2.30;1.20;;;;;;;;;;4907749;29;20232;-77
2021/05/13 13:34:14;;;;;;;2.53;1.00;;;;;;;;;;4904220;29;20224;-79
2021/05/13 13:36:43;;;;;;;1.57;1.47;;;;;;;;;;4922118;28;20592;-78
2021/05/13 13:39:11;;;;;;;5.40;1.10;;;;;;;;;;4884405;29;20236;-80
2021/05/13 13:41:40;;;;;;;2.27;1.07;;;;;;;;;;4898982;29;20238;-79
2021/05/13 13:44:08;;;;;;;1.23;1.00;;;;;;;;;;4916080;28;20255;-79
2021/05/13 13:46:36;;;;;;;1.60;1.20;;;;;;;;;;4921243;28;20228;-80
2021/05/13 13:49:04;;;;;;;0.90;0.90;;;;;;;;;;4916661;28;20236;-79
2021/05/13 13:51:33;;;;;;;1.07;0.90;;;;;;;;;;4914723;28;20239;-80
2021/05/13 13:54:01;;;;;;;1.30;1.10;;;;;;;;;;4915262;29;20236;-80
2021/05/13 13:56:29;;;;;;;2.03;1.07;;;;;;;;;;4916598;29;20240;-79
2021/05/13 13:58:58;;;;;;;1.17;1.00;;;;;;;;;;4908562;28;20233;-79
2021/05/13 14:01:26;;;;;;;1.00;0.90;;;;;;;;;;4929664;28;20223;-81
2021/05/13 14:03:54;;;;;;;1.20;1.10;;;;;;;;;;4904783;28;20225;-80
2021/05/13 14:06:22;;;;;;;1.43;0.90;;;;;;;;;;4907417;29;20231;-78
2021/05/13 14:08:50;;;;;;;1.67;1.20;;;;;;;;;;4891091;29;20228;-77
2021/05/13 14:11:18;;;;;;;0.90;0.87;;;;;;;;;;4903472;29;20232;-77
2021/05/13 14:13:46;;;;;;;1.10;0.80;;;;;;;;;;4907833;29;20228;-77
2021/05/13 14:16:15;;;;;;;1.33;1.17;;;;;;;;;;4904769;28;20550;-78
2021/05/13 14:18:43;;;;;;;2.47;1.60;;;;;;;;;;4908273;29;20236;-78
2021/05/13 14:21:12;;;;;;;3.03;2.70;;;;;;;;;;4906273;28;20231;-78
2021/05/13 14:23:41;;;;;;;5.38;3.78;;;;;;;;;;4892864;29;20225;-78
2021/05/13 14:26:09;;;;;;;13.68;9.52;;;;;;;;;;4894561;28;20230;-78
2021/05/13 14:28:37;;;;;;;1.10;1.00;;;;;;;;;;4904903;29;20598;-77
2021/05/13 14:31:05;;;;;;;2.60;1.10;;;;;;;;;;4906080;28;20232;-78
2021/05/13 14:33:34;;;;;;;1.10;1.00;;;;;;;;;;4905367;29;20239;-78
2021/05/13 14:36:02;;;;;;;1.15;1.08;;;;;;;;;;4909705;28;20243;-78
2021/05/13 14:38:31;;;;;;;1.83;1.48;;;;;;;;;;4908071;29;20623;-79
2021/05/13 14:40:59;;;;;;;1.52;0.98;;;;;;;;;;4887422;28;20941;-78
2021/05/13 14:43:27;;;;;;;0.85;0.82;;;;;;;;;;4907009;28;20240;-78
2021/05/13 14:45:55;;;;;;;1.13;1.05;;;;;;;;;;4909766;28;20240;-79
2021/05/13 14:48:27;;;;;;;1.02;0.93;;;;;;;;;;4900990;29;20624;-79
2021/05/13 14:50:55;;;;;;;2.30;1.42;;;;;;;;;;4894353;29;20703;-79
2021/05/13 14:53:24;;;;;;;1.63;0.90;;;;;;;;;;4891245;29;20236;-78
2021/05/13 14:55:52;;;;;;;1.38;0.80;;;;;;;;;;4888896;28;20225;-79
2021/05/13 14:58:20;;;;;;;1.00;0.80;;;;;;;;;;4908887;29;20240;-78
2021/05/13 15:00:52;;;;;;;2.20;0.88;;;;;;;;;;4892386;29;20220;-78
2021/05/13 15:03:20;;;;;;;1.33;1.00;;;;;;;;;;4913140;29;20244;-78
2021/05/13 15:05:48;;;;;;;1.48;0.90;;;;;;;;;;4908179;29;20235;-78